Time;durP1;ratioP1;P1;durP2;ratioP2;P2;SDS_P1;SDS_P2;PMS_P1;PMS_P2;Temp;Humidity;BMP_temperature;BMP_pressure;BME280_temperature;BME280_humidity;BME280_pressure;Samples;Min_cycle;Max_cycle;Signal;HPM_P1;HPM_P2
2021/12/04 00:01:44;;;;;;;;;;;0.90;99.90;;;;;;5065951;28;19928;-68
2021/12/04 00:04:11;;;;;;;;;;;1.00;99.90;;;;;;5065493;28;19944;-67
2021/12/04 00:06:39;;;;;;;;;;;1.00;99.90;;;;;;5066036;28;19927;-68
2021/12/04 00:09:07;;;;;;;;;;;1.00;99.90;;;;;;5066197;28;20147;-68
2021/12/04 00:11:37;;;;;;;;;;;1.00;99.90;;;;;;5065628;28;20030;-67
2021/12/04 00:14:04;;;;;;;;;;;1.00;99.90;;;;;;5065770;28;19983;-68
2021/12/04 00:16:30;;;;;;;;;;;1.00;99.90;;;;;;5066001;28;20200;-68
2021/12/04 00:18:58;;;;;;;;;;;1.00;99.90;;;;;;5065931;28;19950;-68
2021/12/04 00:21:25;;;;;;;;;;;1.00;99.90;;;;;;5065883;28;19943;-67
2021/12/04 00:23:51;;;;;;;;;;;1.00;99.90;;;;;;5065280;28;19921;-68
2021/12/04 00:26:18;;;;;;;;;;;1.00;99.90;;;;;;5065391;28;19983;-68
2021/12/04 00:28:45;;;;;;;;;;;1.00;99.90;;;;;;5065411;28;19921;-67
2021/12/04 00:31:12;;;;;;;;;;;1.00;99.90;;;;;;5065743;28;19921;-68
2021/12/04 00:33:42;;;;;;;;;;;1.00;99.90;;;;;;5065269;28;19956;-67
2021/12/04 00:36:20;;;;;;;;;;;1.00;99.90;;;;;;5065218;28;19925;-67
2021/12/04 00:49:42;;;;;;;;;;;1.10;99.90;;;;;;5065079;28;19927;-67
2021/12/04 00:52:10;;;;;;;;;;;1.00;99.90;;;;;;5065353;28;19920;-68
2021/12/04 00:54:38;;;;;;;;;;;1.10;99.90;;;;;;5064544;28;20246;-69
2021/12/04 00:57:05;;;;;;;;;;;1.00;99.90;;;;;;5065213;28;20108;-67
2021/12/04 00:59:31;;;;;;;;;;;1.10;99.90;;;;;;5065106;28;19920;-68
2021/12/04 01:01:58;;;;;;;;;;;1.10;99.90;;;;;;5065017;28;20163;-68
2021/12/04 01:04:25;;;;;;;;;;;1.10;99.90;;;;;;5064551;28;19927;-68
2021/12/04 01:06:51;;;;;;;;;;;1.00;99.90;;;;;;5064890;28;19927;-67
2021/12/04 01:09:21;;;;;;;;;;;1.00;99.90;;;;;;5064617;28;19920;-68
2021/12/04 01:11:47;;;;;;;;;;;1.00;99.90;;;;;;5064381;28;19920;-68
2021/12/04 01:14:15;;;;;;;;;;;1.00;99.90;;;;;;5064406;28;20204;-68
2021/12/04 01:16:42;;;;;;;;;;;1.00;99.90;;;;;;5064892;28;20113;-68
2021/12/04 01:19:09;;;;;;;;;;;1.00;99.90;;;;;;5064726;28;19925;-68
2021/12/04 01:21:36;;;;;;;;;;;1.00;99.90;;;;;;5064616;28;19927;-68
2021/12/04 01:24:03;;;;;;;;;;;1.00;99.90;;;;;;5064475;28;20231;-68
2021/12/04 01:26:30;;;;;;;;;;;1.00;99.90;;;;;;5064250;28;19921;-67
2021/12/04 01:28:57;;;;;;;;;;;1.00;99.90;;;;;;5064444;28;19921;-68
2021/12/04 01:31:24;;;;;;;;;;;1.00;99.90;;;;;;5064499;28;19927;-68
2021/12/04 01:33:50;;;;;;;;;;;1.00;99.90;;;;;;5064192;28;19927;-68
2021/12/04 01:36:17;;;;;;;;;;;1.00;99.90;;;;;;5064212;28;20242;-67
2021/12/04 01:38:44;;;;;;;;;;;1.00;99.90;;;;;;5064228;28;19920;-68
2021/12/04 01:41:10;;;;;;;;;;;1.00;99.90;;;;;;5064343;28;19927;-68
2021/12/04 01:43:38;;;;;;;;;;;1.00;99.90;;;;;;5064200;28;20120;-68
2021/12/04 01:46:05;;;;;;;;;;;1.00;99.90;;;;;;5063888;28;19921;-68
2021/12/04 01:48:32;;;;;;;;;;;1.00;99.90;;;;;;5064318;28;19921;-68
2021/12/04 01:50:58;;;;;;;;;;;1.00;99.90;;;;;;5064159;28;20108;-68
2021/12/04 01:53:25;;;;;;;;;;;1.00;99.90;;;;;;5064143;28;19921;-68
2021/12/04 01:55:52;;;;;;;;;;;1.00;99.90;;;;;;5063531;28;20218;-68
2021/12/04 01:58:19;;;;;;;;;;;1.00;99.90;;;;;;5064091;28;19943;-68
2021/12/04 02:00:48;;;;;;;;;;;1.00;99.90;;;;;;5063953;28;19920;-68
2021/12/04 02:03:14;;;;;;;;;;;1.00;99.90;;;;;;5063463;28;19921;-68
2021/12/04 02:05:41;;;;;;;;;;;0.90;99.90;;;;;;5063732;28;19927;-68
2021/12/04 02:08:08;;;;;;;;;;;0.90;99.90;;;;;;5063928;28;19921;-67
2021/12/04 02:10:36;;;;;;;;;;;0.90;99.90;;;;;;5063802;28;19920;-67
2021/12/04 02:13:03;;;;;;;;;;;0.90;99.90;;;;;;5063775;28;19927;-67
2021/12/04 02:15:30;;;;;;;;;;;1.00;99.90;;;;;;5063316;28;19988;-68
2021/12/04 02:17:58;;;;;;;;;;;0.90;99.90;;;;;;5063446;28;19967;-68
2021/12/04 02:20:27;;;;;;;;;;;1.00;99.90;;;;;;5063327;28;19921;-68
2021/12/04 02:22:54;;;;;;;;;;;0.90;99.90;;;;;;5063422;28;20254;-68
2021/12/04 02:25:21;;;;;;;;;;;0.90;99.90;;;;;;5063097;28;20212;-67
2021/12/04 02:27:48;;;;;;;;;;;0.90;99.90;;;;;;5063055;28;19920;-68
2021/12/04 02:30:16;;;;;;;;;;;0.90;99.90;;;;;;5063604;28;19921;-69
2021/12/04 02:32:44;;;;;;;;;;;0.90;99.90;;;;;;5063181;28;19987;-68
2021/12/04 02:35:12;;;;;;;;;;;0.80;99.90;;;;;;5063205;28;19921;-67
2021/12/04 02:37:40;;;;;;;;;;;0.80;99.90;;;;;;5063397;28;19984;-67
2021/12/04 02:40:08;;;;;;;;;;;0.80;99.90;;;;;;5063536;28;19920;-68
2021/12/04 02:42:35;;;;;;;;;;;0.80;99.90;;;;;;5063063;28;19921;-67
2021/12/04 02:45:02;;;;;;;;;;;0.80;99.90;;;;;;5062762;28;19920;-67
2021/12/04 02:47:29;;;;;;;;;;;0.80;99.90;;;;;;5062812;28;19921;-67
2021/12/04 02:49:56;;;;;;;;;;;0.80;99.90;;;;;;5063120;28;19984;-67
2021/12/04 02:52:23;;;;;;;;;;;0.80;99.90;;;;;;5063139;28;19921;-67
2021/12/04 02:54:51;;;;;;;;;;;0.80;99.90;;;;;;5063003;28;19920;-67
2021/12/04 02:57:20;;;;;;;;;;;0.80;99.90;;;;;;5063212;28;19928;-67
2021/12/04 02:59:47;;;;;;;;;;;0.80;99.90;;;;;;5062901;28;19921;-67
2021/12/04 03:02:17;;;;;;;;;;;0.80;99.90;;;;;;5062899;28;19921;-67
2021/12/04 03:04:44;;;;;;;;;;;0.80;99.90;;;;;;5062953;28;19921;-67
2021/12/04 03:07:11;;;;;;;;;;;0.80;99.90;;;;;;5064789;28;19921;-67
2021/12/04 03:09:38;;;;;;;;;;;0.80;99.90;;;;;;5067255;28;19980;-67
2021/12/04 03:12:07;;;;;;;;;;;0.80;99.90;;;;;;5066785;28;19927;-67
2021/12/04 03:14:34;;;;;;;;;;;0.70;99.90;;;;;;5066886;28;19921;-67
2021/12/04 03:17:00;;;;;;;;;;;0.80;99.90;;;;;;5066986;28;19928;-67
2021/12/04 03:19:27;;;;;;;;;;;0.80;99.90;;;;;;5066809;28;19921;-67
2021/12/04 03:21:54;;;;;;;;;;;0.80;99.90;;;;;;5066909;28;19921;-67
2021/12/04 03:24:21;;;;;;;;;;;0.80;99.90;;;;;;5066727;28;19921;-67
2021/12/04 03:26:50;;;;;;;;;;;0.90;99.90;;;;;;5066853;28;20086;-67
2021/12/04 03:29:19;;;;;;;;;;;0.80;99.90;;;;;;5066397;28;19948;-67
2021/12/04 03:32:12;;;;;;;;;;;0.80;99.90;;;;;;5066487;28;19921;-67
2021/12/04 03:40:24;;;;;;;;;;;0.80;99.90;;;;;;5066482;28;19923;-67
2021/12/04 03:42:52;;;;;;;;;;;0.80;99.90;;;;;;5066606;28;19920;-67
2021/12/04 03:45:21;;;;;;;;;;;0.80;99.90;;;;;;5066171;28;19921;-67
2021/12/04 03:47:49;;;;;;;;;;;0.80;99.90;;;;;;5066204;28;19927;-69
2021/12/04 03:50:16;;;;;;;;;;;0.80;99.90;;;;;;5066033;28;19921;-68
2021/12/04 03:52:43;;;;;;;;;;;0.80;99.90;;;;;;5066048;28;19921;-68
2021/12/04 03:55:10;;;;;;;;;;;0.80;99.90;;;;;;5066071;28;19924;-68
2021/12/04 03:57:44;;;;;;;;;;;0.80;99.90;;;;;;5066248;28;19920;-68
2021/12/04 04:00:11;;;;;;;;;;;0.80;99.90;;;;;;5065972;28;20299;-67
2021/12/04 04:02:39;;;;;;;;;;;0.80;99.90;;;;;;5079927;23;19921;-70
2021/12/04 04:05:06;;;;;;;;;;;0.80;99.90;;;;;;5066385;28;19920;-69
2021/12/04 04:07:32;;;;;;;;;;;0.90;99.90;;;;;;5066284;28;19920;-68
2021/12/04 04:09:59;;;;;;;;;;;0.90;99.90;;;;;;5066524;28;19921;-68
2021/12/04 04:12:26;;;;;;;;;;;0.90;99.90;;;;;;5066374;28;19931;-70
2021/12/04 04:14:52;;;;;;;;;;;0.80;99.90;;;;;;5065959;28;19920;-68
2021/12/04 04:17:42;;;;;;;;;;;0.80;99.90;;;;;;5049149;28;19927;-69
2021/12/04 04:20:11;;;;;;;;;;;0.80;99.90;;;;;;5046370;28;19921;-69
2021/12/04 04:22:38;;;;;;;;;;;0.80;99.90;;;;;;5046096;28;20108;-69
2021/12/04 04:25:05;;;;;;;;;;;0.80;99.90;;;;;;5045878;28;19925;-68
2021/12/04 04:27:31;;;;;;;;;;;0.80;99.90;;;;;;5054387;28;19925;-69
2021/12/04 04:29:58;;;;;;;;;;;0.80;99.90;;;;;;5066178;28;19927;-69
2021/12/04 04:32:25;;;;;;;;;;;0.80;99.90;;;;;;5066023;28;19921;-69
2021/12/04 04:34:53;;;;;;;;;;;0.80;99.90;;;;;;5065918;28;20180;-69
2021/12/04 04:37:28;;;;;;;;;;;0.80;99.90;;;;;;5065971;28;19960;-69
2021/12/04 04:40:24;;;;;;;;;;;0.80;99.90;;;;;;5065777;28;19921;-69
2021/12/04 04:59:32;;;;;;;;;;;0.80;99.90;;;;;;5065081;28;19924;-69
2021/12/04 05:02:09;;;;;;;;;;;0.70;99.90;;;;;;5065078;28;20277;-69
2021/12/04 05:10:33;;;;;;;;;;;0.80;99.90;;;;;;5065152;28;19939;-69
2021/12/04 05:13:02;;;;;;;;;;;0.80;99.90;;;;;;5065215;28;19995;-69
2021/12/04 05:15:36;;;;;;;;;;;0.70;99.90;;;;;;5064998;28;19929;-69
2021/12/04 05:18:11;;;;;;;;;;;0.70;99.90;;;;;;5064889;28;19920;-68
2021/12/04 05:20:39;;;;;;;;;;;0.80;99.90;;;;;;5065104;28;19988;-69
2021/12/04 05:23:08;;;;;;;;;;;0.80;99.90;;;;;;5064784;28;19955;-69
2021/12/04 05:25:36;;;;;;;;;;;0.80;99.90;;;;;;5064681;28;19927;-69
2021/12/04 05:28:03;;;;;;;;;;;0.80;99.90;;;;;;5064552;28;19921;-69
2021/12/04 05:30:29;;;;;;;;;;;0.80;99.90;;;;;;5064075;28;20099;-68
2021/12/04 05:32:56;;;;;;;;;;;0.80;99.90;;;;;;5064787;28;19961;-69
2021/12/04 05:35:22;;;;;;;;;;;0.80;99.90;;;;;;5064392;28;19928;-69
2021/12/04 05:37:49;;;;;;;;;;;0.80;99.90;;;;;;5064356;28;19921;-68
2021/12/04 05:40:16;;;;;;;;;;;0.80;99.90;;;;;;5064490;28;19921;-69
2021/12/04 05:42:44;;;;;;;;;;;0.80;99.90;;;;;;5064369;28;20222;-69
2021/12/04 05:45:17;;;;;;;;;;;0.80;99.90;;;;;;5064157;28;19927;-69
2021/12/04 05:47:47;;;;;;;;;;;0.90;99.90;;;;;;5064399;28;19928;-69
2021/12/04 05:50:24;;;;;;;;;;;0.90;99.90;;;;;;5064861;28;19974;-69
2021/12/04 05:53:03;;;;;;;;;;;0.90;99.90;;;;;;5064485;28;19927;-69
2021/12/04 05:55:31;;;;;;;;;;;0.90;99.90;;;;;;5064288;28;19927;-69
2021/12/04 05:57:59;;;;;;;;;;;0.90;99.90;;;;;;5064327;28;19920;-69
2021/12/04 06:00:26;;;;;;;;;;;0.90;99.90;;;;;;5064341;28;19927;-69
2021/12/04 06:02:53;;;;;;;;;;;0.90;99.90;;;;;;5063935;28;19931;-68
2021/12/04 06:05:20;;;;;;;;;;;0.90;99.90;;;;;;5064052;28;19927;-69
2021/12/04 06:07:46;;;;;;;;;;;0.90;99.90;;;;;;5064215;28;20111;-69
2021/12/04 06:10:13;;;;;;;;;;;1.00;99.90;;;;;;5064215;28;19935;-69
2021/12/04 06:12:40;;;;;;;;;;;0.90;99.90;;;;;;5064098;28;19921;-69
2021/12/04 06:15:09;;;;;;;;;;;0.90;99.90;;;;;;5063894;28;19927;-69
2021/12/04 06:17:35;;;;;;;;;;;1.00;99.90;;;;;;5064126;28;19921;-69
2021/12/04 06:22:46;;;;;;;;;;;1.00;99.90;;;;;;5063761;28;19924;-69
2021/12/04 06:25:14;;;;;;;;;;;1.00;99.90;;;;;;5063523;28;19942;-69
2021/12/04 06:27:40;;;;;;;;;;;1.00;99.90;;;;;;5063612;28;20230;-69
2021/12/04 06:30:10;;;;;;;;;;;1.10;99.90;;;;;;5063583;28;19925;-70
2021/12/04 06:32:38;;;;;;;;;;;1.00;99.90;;;;;;5064022;28;19928;-70
2021/12/04 06:35:04;;;;;;;;;;;1.10;99.90;;;;;;5063729;28;19921;-69
2021/12/04 06:37:31;;;;;;;;;;;1.10;99.90;;;;;;5063934;28;19956;-70
2021/12/04 06:39:58;;;;;;;;;;;1.10;99.90;;;;;;5063798;28;19928;-72
2021/12/04 06:42:24;;;;;;;;;;;1.10;99.90;;;;;;5063695;28;20000;-69
2021/12/04 06:44:54;;;;;;;;;;;1.10;99.90;;;;;;5063547;28;19921;-69
2021/12/04 06:47:22;;;;;;;;;;;1.10;99.90;;;;;;5063473;28;20215;-69
2021/12/04 06:49:50;;;;;;;;;;;1.10;99.90;;;;;;5063652;28;19921;-69
2021/12/04 06:52:21;;;;;;;;;;;1.20;99.90;;;;;;5063020;28;20151;-69
2021/12/04 06:54:54;;;;;;;;;;;1.20;99.90;;;;;;5063482;28;19996;-70
2021/12/04 06:57:21;;;;;;;;;;;1.20;99.90;;;;;;5063707;28;19921;-69
2021/12/04 06:59:48;;;;;;;;;;;1.30;99.90;;;;;;5063329;28;19952;-69
2021/12/04 07:02:15;;;;;;;;;;;1.30;99.90;;;;;;5062839;28;19974;-69
2021/12/04 07:04:43;;;;;;;;;;;1.30;99.90;;;;;;5063023;28;19921;-69
2021/12/04 07:07:10;;;;;;;;;;;1.30;99.90;;;;;;5063179;28;19936;-70
2021/12/04 07:09:38;;;;;;;;;;;1.30;99.90;;;;;;5063251;28;19943;-69
2021/12/04 07:12:05;;;;;;;;;;;1.30;99.90;;;;;;5063249;28;19921;-69
2021/12/04 07:14:32;;;;;;;;;;;1.30;99.90;;;;;;5063020;28;19920;-69
2021/12/04 07:17:01;;;;;;;;;;;1.30;99.90;;;;;;5062878;28;20136;-69
2021/12/04 07:19:31;;;;;;;;;;;1.40;99.90;;;;;;5063142;28;19965;-70
2021/12/04 07:21:59;;;;;;;;;;;1.40;99.90;;;;;;5063237;28;19920;-69
2021/12/04 07:24:26;;;;;;;;;;;1.40;99.90;;;;;;5062599;28;19928;-69
2021/12/04 07:26:53;;;;;;;;;;;1.40;99.90;;;;;;5063198;28;19958;-69
2021/12/04 07:29:20;;;;;;;;;;;1.50;99.90;;;;;;5062753;28;19920;-69
2021/12/04 07:31:46;;;;;;;;;;;1.50;99.90;;;;;;5062801;28;20228;-74
2021/12/04 07:34:13;;;;;;;;;;;1.50;99.90;;;;;;5063335;28;19927;-68
2021/12/04 07:36:40;;;;;;;;;;;1.50;99.90;;;;;;5063010;28;19920;-70
2021/12/04 07:39:08;;;;;;;;;;;1.50;99.90;;;;;;5063215;28;19920;-70
2021/12/04 07:41:38;;;;;;;;;;;1.50;99.90;;;;;;5062979;28;19936;-70
2021/12/04 07:44:05;;;;;;;;;;;1.50;99.90;;;;;;5062874;28;19963;-70
2021/12/04 07:46:31;;;;;;;;;;;1.50;99.90;;;;;;5063279;28;19920;-70
2021/12/04 07:48:58;;;;;;;;;;;1.50;99.90;;;;;;5063244;28;19927;-71
2021/12/04 07:51:24;;;;;;;;;;;1.60;99.90;;;;;;5062575;28;19921;-70
2021/12/04 07:53:51;;;;;;;;;;;1.60;99.90;;;;;;5065359;28;20208;-70
2021/12/04 07:56:19;;;;;;;;;;;1.60;99.90;;;;;;5064958;28;19920;-69
2021/12/04 07:58:45;;;;;;;;;;;1.70;99.90;;;;;;5066196;28;20230;-70
2021/12/04 08:01:12;;;;;;;;;;;1.60;99.90;;;;;;5065858;28;19980;-70
2021/12/04 08:03:39;;;;;;;;;;;1.70;99.90;;;;;;5046258;28;20123;-70
2021/12/04 08:06:05;;;;;;;;;;;1.70;99.90;;;;;;5056123;28;19929;-70
2021/12/04 08:08:32;;;;;;;;;;;1.70;99.90;;;;;;5066406;28;19921;-70
2021/12/04 08:10:59;;;;;;;;;;;1.70;99.90;;;;;;5063243;28;19928;-70
2021/12/04 08:13:28;;;;;;;;;;;1.70;99.90;;;;;;5065108;28;19928;-70
2021/12/04 08:15:55;;;;;;;;;;;1.80;99.90;;;;;;5065176;28;19959;-70
2021/12/04 08:18:21;;;;;;;;;;;1.70;99.90;;;;;;5065871;28;19988;-70
2021/12/04 08:20:48;;;;;;;;;;;1.80;99.90;;;;;;5065632;28;19956;-70
2021/12/04 08:23:15;;;;;;;;;;;1.80;99.90;;;;;;5065847;28;19921;-69
2021/12/04 08:25:41;;;;;;;;;;;1.80;99.90;;;;;;5065490;28;19927;-69
2021/12/04 08:28:08;;;;;;;;;;;1.80;99.90;;;;;;5065926;28;19920;-70
2021/12/04 08:30:39;;;;;;;;;;;1.90;99.90;;;;;;5065575;28;19929;-69
2021/12/04 08:33:06;;;;;;;;;;;1.90;99.90;;;;;;5065316;28;19921;-68
2021/12/04 08:35:38;;;;;;;;;;;1.90;99.90;;;;;;5065580;28;19920;-68
2021/12/04 08:38:05;;;;;;;;;;;1.90;99.90;;;;;;5065458;28;20004;-69
2021/12/04 08:40:32;;;;;;;;;;;2.00;99.90;;;;;;5064690;28;19933;-69
2021/12/04 08:42:59;;;;;;;;;;;2.00;99.90;;;;;;5065437;28;19921;-70
2021/12/04 08:45:26;;;;;;;;;;;2.00;99.90;;;;;;5045698;28;20094;-69
2021/12/04 08:47:54;;;;;;;;;;;2.00;99.90;;;;;;5063244;28;19920;-69
2021/12/04 08:50:24;;;;;;;;;;;2.10;99.90;;;;;;5065397;28;19921;-69
2021/12/04 08:52:50;;;;;;;;;;;2.10;99.90;;;;;;5065051;28;19987;-69
2021/12/04 08:55:17;;;;;;;;;;;2.10;99.90;;;;;;5065233;28;19921;-69
2021/12/04 08:57:44;;;;;;;;;;;2.10;99.90;;;;;;5064807;28;19921;-68
2021/12/04 09:00:13;;;;;;;;;;;2.10;99.90;;;;;;5065065;28;19956;-68
2021/12/04 09:02:40;;;;;;;;;;;2.10;99.90;;;;;;5064148;28;19921;-67
2021/12/04 09:05:09;;;;;;;;;;;2.10;99.90;;;;;;5064892;28;19927;-67
2021/12/04 09:07:35;;;;;;;;;;;2.20;99.90;;;;;;5064081;28;19927;-68
2021/12/04 09:10:03;;;;;;;;;;;2.20;99.90;;;;;;5065003;28;19921;-67
2021/12/04 09:12:29;;;;;;;;;;;2.20;99.90;;;;;;5063944;28;20358;-67
2021/12/04 09:14:57;;;;;;;;;;;2.20;99.90;;;;;;5063128;28;19920;-68
2021/12/04 09:17:24;;;;;;;;;;;2.20;99.90;;;;;;5064374;28;19921;-67
2021/12/04 09:19:50;;;;;;;;;;;2.20;99.90;;;;;;5064832;28;19948;-68
2021/12/04 09:22:24;;;;;;;;;;;2.30;99.90;;;;;;5064010;28;19928;-68
2021/12/04 09:24:54;;;;;;;;;;;2.30;99.90;;;;;;5064267;28;20115;-68
2021/12/04 09:27:34;;;;;;;;;;;2.40;99.90;;;;;;5064573;28;19920;-68
2021/12/04 09:30:09;;;;;;;;;;;2.40;99.90;;;;;;5064785;28;19925;-68
2021/12/04 10:00:33;;;;;;;;;;;2.90;99.90;;;;;;5063663;28;19999;-67
2021/12/04 10:03:16;;;;;;;;;;;2.90;99.90;;;;;;5105283;22;19927;-89
2021/12/04 10:14:30;;;;;;;;;;;3.00;99.90;;;;;;5058614;28;20115;-90
2021/12/04 10:17:25;;;;;;;;;;;3.00;99.90;;;;;;5099596;22;19921;-68
2021/12/04 10:20:10;;;;;;;;;;;3.10;99.90;;;;;;5083669;28;19927;-66
2021/12/04 10:22:41;;;;;;;;;;;3.10;99.90;;;;;;5083080;28;19924;-67
2021/12/04 10:33:38;;;;;;;;;;;3.10;99.90;;;;;;5083404;28;19923;-68
2021/12/04 10:36:05;;;;;;;;;;;3.20;99.90;;;;;;5083189;28;19940;-67
2021/12/04 10:38:38;;;;;;;;;;;3.20;99.90;;;;;;5083639;28;19920;-67
2021/12/04 10:41:05;;;;;;;;;;;3.20;99.90;;;;;;5082723;28;19933;-67
2021/12/04 10:43:35;;;;;;;;;;;3.20;99.90;;;;;;5083146;28;19920;-67
2021/12/04 10:46:09;;;;;;;;;;;3.20;99.90;;;;;;5083230;28;20207;-67
2021/12/04 10:48:43;;;;;;;;;;;3.20;99.90;;;;;;5083693;28;19920;-67
2021/12/04 10:51:20;;;;;;;;;;;3.30;99.90;;;;;;5082569;28;20067;-67
2021/12/04 10:53:48;;;;;;;;;;;3.30;99.90;;;;;;5062876;28;19951;-67
2021/12/04 10:56:26;;;;;;;;;;;3.40;99.90;;;;;;5081443;28;19920;-67
2021/12/04 11:02:01;;;;;;;;;;;3.40;99.90;;;;;;5076627;28;19966;-68
2021/12/04 11:04:36;;;;;;;;;;;3.40;99.90;;;;;;5082926;28;20146;-69
2021/12/04 11:18:53;;;;;;;;;;;3.50;99.90;;;;;;5070165;28;19955;-66
2021/12/04 11:24:23;;;;;;;;;;;3.60;99.90;;;;;;5082481;28;19923;-66
2021/12/04 11:40:35;;;;;;;;;;;3.80;99.90;;;;;;5086261;28;19923;-66
2021/12/04 11:43:07;;;;;;;;;;;3.80;99.90;;;;;;5086000;28;19920;-66
2021/12/04 11:45:41;;;;;;;;;;;3.80;99.90;;;;;;5085930;28;19979;-66
2021/12/04 11:48:09;;;;;;;;;;;3.80;99.90;;;;;;5086319;28;19920;-67
2021/12/04 11:50:37;;;;;;;;;;;3.80;99.90;;;;;;5086408;28;19928;-66
2021/12/04 11:53:05;;;;;;;;;;;3.80;99.90;;;;;;5085572;28;20120;-67
2021/12/04 11:55:34;;;;;;;;;;;3.90;99.90;;;;;;5086308;28;19920;-63
2021/12/04 11:58:01;;;;;;;;;;;3.90;99.90;;;;;;5086066;28;19951;-65
2021/12/04 12:00:29;;;;;;;;;;;3.90;99.90;;;;;;5085719;28;19921;-67
2021/12/04 12:03:06;;;;;;;;;;;3.90;99.90;;;;;;5086092;28;19920;-66
2021/12/04 12:05:40;;;;;;;;;;;3.90;99.90;;;;;;5086074;28;19920;-67
2021/12/04 12:08:06;;;;;;;;;;;3.90;99.90;;;;;;5085679;28;19921;-65
2021/12/04 12:10:34;;;;;;;;;;;3.90;99.90;;;;;;5085561;28;19920;-66
2021/12/04 12:13:06;;;;;;;;;;;4.00;99.90;;;;;;5085298;28;19955;-65
2021/12/04 12:15:34;;;;;;;;;;;4.00;99.90;;;;;;5084623;28;20216;-65
2021/12/04 12:18:10;;;;;;;;;;;4.10;99.90;;;;;;5085124;28;19962;-65
2021/12/04 12:20:42;;;;;;;;;;;4.10;99.90;;;;;;5085448;28;19995;-66
2021/12/04 12:23:11;;;;;;;;;;;4.10;99.90;;;;;;5085396;28;19966;-65
2021/12/04 12:25:55;;;;;;;;;;;4.20;99.90;;;;;;5085411;28;19921;-66
2021/12/04 12:34:01;;;;;;;;;;;4.20;99.90;;;;;;5073625;28;19917;-67
2021/12/04 12:36:29;;;;;;;;;;;4.30;99.90;;;;;;5084884;28;20120;-67
2021/12/04 12:38:57;;;;;;;;;;;4.30;99.90;;;;;;5085354;28;19921;-66
2021/12/04 12:41:26;;;;;;;;;;;4.30;99.90;;;;;;5084776;28;19927;-66
2021/12/04 12:43:59;;;;;;;;;;;4.30;99.90;;;;;;5085217;28;19920;-66
2021/12/04 12:46:32;;;;;;;;;;;4.30;99.90;;;;;;5083564;28;19942;-68
2021/12/04 12:48:59;;;;;;;;;;;4.30;99.90;;;;;;5084744;28;20150;-66
2021/12/04 12:51:28;;;;;;;;;;;4.40;99.90;;;;;;5084549;28;19920;-67
2021/12/04 12:53:56;;;;;;;;;;;4.40;99.90;;;;;;5084857;28;19927;-66
2021/12/04 12:56:26;;;;;;;;;;;4.40;99.90;;;;;;5083946;28;19921;-66
2021/12/04 12:58:56;;;;;;;;;;;4.40;99.90;;;;;;5085017;28;19986;-66
2021/12/04 13:12:40;;;;;;;;;;;4.50;99.90;;;;;;5079993;28;19955;-66
2021/12/04 13:15:07;;;;;;;;;;;4.50;99.90;;;;;;5084326;28;19921;-66
2021/12/04 13:17:33;;;;;;;;;;;4.50;99.90;;;;;;5084306;28;19927;-66
2021/12/04 13:20:01;;;;;;;;;;;4.50;99.90;;;;;;5084098;28;19983;-66
2021/12/04 13:22:28;;;;;;;;;;;4.60;99.90;;;;;;5083179;28;19920;-66
2021/12/04 13:24:58;;;;;;;;;;;4.60;99.90;;;;;;5083187;28;20097;-66
2021/12/04 13:29:51;;;;;;;;;;;4.70;99.90;;;;;;5084836;28;19920;-67
2021/12/04 13:32:26;;;;;;;;;;;4.70;99.90;;;;;;5084050;28;19920;-67
2021/12/04 13:34:52;;;;;;;;;;;4.70;99.90;;;;;;5083882;28;19992;-68
2021/12/04 13:37:24;;;;;;;;;;;4.70;99.90;;;;;;5083652;28;19926;-68
2021/12/04 13:39:55;;;;;;;;;;;4.80;99.90;;;;;;5084386;28;19927;-68
2021/12/04 13:42:23;;;;;;;;;;;4.80;99.90;;;;;;5083458;28;19920;-67
2021/12/04 13:44:50;;;;;;;;;;;4.80;99.90;;;;;;5083675;28;19920;-68
2021/12/04 13:47:17;;;;;;;;;;;4.80;99.90;;;;;;5083696;28;19927;-68
2021/12/04 13:49:54;;;;;;;;;;;4.80;99.90;;;;;;5083310;28;19990;-68
2021/12/04 13:52:21;;;;;;;;;;;4.80;99.90;;;;;;5083217;28;19943;-68
2021/12/04 13:54:49;;;;;;;;;;;4.80;99.90;;;;;;5083602;28;19924;-68
2021/12/04 13:57:17;;;;;;;;;;;4.80;99.90;;;;;;5083692;28;19920;-67
2021/12/04 13:59:45;;;;;;;;;;;4.80;99.90;;;;;;5083602;28;19921;-68
2021/12/04 14:02:18;;;;;;;;;;;4.90;99.90;;;;;;5083641;28;19920;-68
2021/12/04 14:04:45;;;;;;;;;;;4.90;99.90;;;;;;5083222;28;20168;-68
2021/12/04 14:07:12;;;;;;;;;;;4.90;99.90;;;;;;5083308;28;19920;-68
2021/12/04 14:09:39;;;;;;;;;;;5.00;99.90;;;;;;5083586;28;19921;-67
2021/12/04 14:12:06;;;;;;;;;;;5.00;99.90;;;;;;5083047;28;19920;-67
2021/12/04 14:14:34;;;;;;;;;;;5.00;99.90;;;;;;5083140;28;19921;-67
2021/12/04 14:17:05;;;;;;;;;;;5.00;99.90;;;;;;5083044;28;20122;-67
2021/12/04 14:19:32;;;;;;;;;;;5.00;99.90;;;;;;5083549;28;19924;-68
2021/12/04 14:21:59;;;;;;;;;;;4.90;99.90;;;;;;5083037;28;19924;-68
2021/12/04 14:24:27;;;;;;;;;;;5.00;99.90;;;;;;5083283;28;19920;-67
2021/12/04 14:26:54;;;;;;;;;;;5.00;99.90;;;;;;5083022;28;19928;-68
2021/12/04 14:29:20;;;;;;;;;;;5.00;99.90;;;;;;5083323;28;19921;-67
2021/12/04 14:31:47;;;;;;;;;;;5.00;99.90;;;;;;5082681;28;19942;-68
2021/12/04 14:34:21;;;;;;;;;;;5.00;99.90;;;;;;5082979;28;19929;-67
2021/12/04 14:36:47;;;;;;;;;;;5.10;99.90;;;;;;5082912;28;20154;-67
2021/12/04 14:39:23;;;;;;;;;;;5.10;99.90;;;;;;5083219;28;19983;-67
2021/12/04 14:41:49;;;;;;;;;;;5.00;99.90;;;;;;5082982;28;19927;-67
2021/12/04 14:44:16;;;;;;;;;;;5.00;99.90;;;;;;5079755;28;19935;-67
2021/12/04 14:46:43;;;;;;;;;;;5.10;99.90;;;;;;5071185;28;19928;-67
2021/12/04 14:49:11;;;;;;;;;;;5.10;99.90;;;;;;5083085;28;20127;-67
2021/12/04 14:51:39;;;;;;;;;;;5.10;99.90;;;;;;5082788;28;19920;-67
2021/12/04 14:54:06;;;;;;;;;;;5.10;99.90;;;;;;5082553;28;19927;-67
2021/12/04 14:56:33;;;;;;;;;;;5.20;99.90;;;;;;5082460;28;19931;-68
2021/12/04 14:59:00;;;;;;;;;;;5.20;99.90;;;;;;5082846;28;20123;-67
2021/12/04 15:01:28;;;;;;;;;;;5.30;99.90;;;;;;5083165;28;19920;-68
2021/12/04 15:03:57;;;;;;;;;;;5.20;99.90;;;;;;5086957;28;19939;-67
2021/12/04 15:06:25;;;;;;;;;;;5.20;99.90;;;;;;5086509;28;20212;-71
2021/12/04 15:08:54;;;;;;;;;;;5.20;99.90;;;;;;5086884;28;19920;-70
2021/12/04 15:11:22;;;;;;;;;;;5.30;99.90;;;;;;5083476;28;19920;-69
2021/12/04 15:13:53;;;;;;;;;;;5.30;99.90;;;;;;5086944;28;19927;-69
2021/12/04 15:16:28;;;;;;;;;;;5.30;99.90;;;;;;5086630;28;19920;-69
2021/12/04 15:19:05;;;;;;;;;;;5.30;99.90;;;;;;5087232;28;19958;-69
2021/12/04 15:21:36;;;;;;;;;;;5.30;99.90;;;;;;5086420;28;19920;-69
2021/12/04 15:24:04;;;;;;;;;;;5.30;99.90;;;;;;5086971;28;19927;-69
2021/12/04 15:26:32;;;;;;;;;;;5.50;99.90;;;;;;5086821;28;19920;-69
2021/12/04 15:28:58;;;;;;;;;;;5.60;99.90;;;;;;5087031;28;19987;-68
2021/12/04 15:31:25;;;;;;;;;;;5.60;99.90;;;;;;5086546;28;19936;-69
2021/12/04 15:33:54;;;;;;;;;;;5.80;99.90;;;;;;5086797;28;19920;-69
2021/12/04 15:36:22;;;;;;;;;;;5.90;99.90;;;;;;5086317;28;19921;-68
2021/12/04 15:38:51;;;;;;;;;;;6.00;99.90;;;;;;5086765;28;19920;-69
2021/12/04 15:41:34;;;;;;;;;;;6.10;99.90;;;;;;5086495;28;20002;-69
2021/12/04 15:44:12;;;;;;;;;;;6.10;99.90;;;;;;5086495;28;20013;-72
2021/12/04 15:46:48;;;;;;;;;;;6.20;99.90;;;;;;5073895;28;19920;-67
2021/12/04 15:54:49;;;;;;;;;;;6.30;99.90;;;;;;5086313;28;20025;-67
2021/12/04 15:57:20;;;;;;;;;;;6.30;99.90;;;;;;5085604;28;19928;-67
2021/12/04 15:59:48;;;;;;;;;;;6.40;99.90;;;;;;5085643;28;19927;-67
2021/12/04 16:02:15;;;;;;;;;;;6.50;99.90;;;;;;5086481;22;19927;-72
2021/12/04 16:04:44;;;;;;;;;;;6.50;99.90;;;;;;5046420;28;20112;-72
2021/12/04 16:07:21;;;;;;;;;;;6.50;99.90;;;;;;5046995;28;19984;-72
2021/12/04 16:09:48;;;;;;;;;;;6.50;99.90;;;;;;5046402;28;19921;-69
2021/12/04 16:12:15;;;;;;;;;;;6.50;99.90;;;;;;5058205;28;19921;-69
2021/12/04 16:14:44;;;;;;;;;;;6.50;99.90;;;;;;5053426;28;20226;-69
2021/12/04 16:17:16;;;;;;;;;;;6.60;99.90;;;;;;5055679;28;19921;-69
2021/12/04 16:19:45;;;;;;;;;;;6.60;99.90;;;;;;5044082;28;20210;-68
2021/12/04 16:22:13;;;;;;;;;;;6.60;99.90;;;;;;5046205;28;19925;-69
2021/12/04 16:24:43;;;;;;;;;;;6.60;99.90;;;;;;5046300;28;19952;-68
2021/12/04 16:27:15;;;;;;;;;;;6.70;99.90;;;;;;5051076;28;19967;-70
2021/12/04 16:29:50;;;;;;;;;;;6.70;99.90;;;;;;5036449;28;19963;-69
2021/12/04 16:32:33;;;;;;;;;;;6.70;99.90;;;;;;5046574;28;19975;-69
2021/12/04 16:35:17;;;;;;;;;;;6.70;99.90;;;;;;5043385;28;20326;-68
2021/12/04 16:37:45;;;;;;;;;;;6.80;99.90;;;;;;5044648;28;19982;-69
2021/12/04 16:40:13;;;;;;;;;;;6.80;99.90;;;;;;5045840;28;19928;-69
2021/12/04 16:42:41;;;;;;;;;;;6.90;99.90;;;;;;5051621;28;19929;-68
2021/12/04 16:45:08;;;;;;;;;;;6.90;99.90;;;;;;5045503;28;19980;-69
2021/12/04 16:47:43;;;;;;;;;;;7.00;99.90;;;;;;5060494;28;19962;-68
2021/12/04 16:50:14;;;;;;;;;;;7.00;99.90;;;;;;5047240;28;19976;-68
2021/12/04 16:55:40;;;;;;;;;;;7.20;99.90;;;;;;5045200;28;20120;-68
2021/12/04 16:58:12;;;;;;;;;;;7.20;99.90;;;;;;5058164;28;19921;-68
2021/12/04 17:00:39;;;;;;;;;;;7.20;99.90;;;;;;5045597;28;20164;-69
2021/12/04 17:03:07;;;;;;;;;;;7.20;99.90;;;;;;5064177;28;19921;-68
2021/12/04 17:05:33;;;;;;;;;;;7.20;99.90;;;;;;5050296;28;20116;-68
2021/12/04 17:08:00;;;;;;;;;;;7.20;99.90;;;;;;5063947;28;19992;-69